createdAt,value
2019-03-10T00:01:35.947Z,76.30
2019-03-10T00:04:04.983Z,76.40
2019-03-10T00:06:34.952Z,76.30
2019-03-10T00:09:04.938Z,77.20
2019-03-10T00:11:33.942Z,76.50
2019-03-10T00:14:02.907Z,76.50
2019-03-10T00:16:31.962Z,76.50
2019-03-10T00:19:01.022Z,76.50
2019-03-10T00:21:30.031Z,76.50
2019-03-10T00:23:59.037Z,76.50
2019-03-10T00:26:28.083Z,76.50
2019-03-10T00:28:57.198Z,76.50
2019-03-10T00:31:26.278Z,76.50
2019-03-10T00:33:55.304Z,76.50
2019-03-10T00:36:24.333Z,76.50
2019-03-10T00:39:37.958Z,76.50
2019-03-10T00:42:52.406Z,76.50
2019-03-10T00:46:20.542Z,76.50
2019-03-10T00:49:42.725Z,76.50
2019-03-10T00:52:18.839Z,76.40
2019-03-10T00:54:47.980Z,76.40
2019-03-10T00:57:17.065Z,76.50
2019-03-10T00:59:46.143Z,76.50
2019-03-10T01:02:15.211Z,76.60
2019-03-10T01:04:44.247Z,76.60
2019-03-10T01:07:32.574Z,76.70
2019-03-10T01:10:01.649Z,76.70
2019-03-10T01:12:30.710Z,76.70
2019-03-10T01:14:59.818Z,76.80
2019-03-10T01:17:28.869Z,76.80
2019-03-10T01:19:57.885Z,76.90
2019-03-10T01:22:26.993Z,77.00
2019-03-10T01:24:56.086Z,77.00
2019-03-10T01:27:25.090Z,77.00
2019-03-10T01:29:54.128Z,77.00
2019-03-10T01:33:02.772Z,77.00
2019-03-10T01:35:38.013Z,77.10
2019-03-10T01:38:07.037Z,77.00
2019-03-10T01:40:36.050Z,77.10
2019-03-10T01:43:05.190Z,77.10
2019-03-10T01:45:34.178Z,77.10
2019-03-10T01:48:03.172Z,77.10
2019-03-10T01:50:32.307Z,77.10
2019-03-10T01:53:01.473Z,77.10
2019-03-10T01:55:30.474Z,77.10
2019-03-10T01:57:59.479Z,77.10
2019-03-10T02:00:28.567Z,77.20
2019-03-10T02:02:57.669Z,77.20
2019-03-10T02:05:26.750Z,77.20
2019-03-10T02:07:55.814Z,77.30
2019-03-10T02:10:24.736Z,77.30
2019-03-10T02:12:53.739Z,77.30
2019-03-10T02:15:22.759Z,77.30
2019-03-10T02:17:51.833Z,77.30
2019-03-10T02:20:20.978Z,77.30
2019-03-10T02:22:50.138Z,77.30
2019-03-10T02:25:19.208Z,77.40
2019-03-10T02:27:48.279Z,77.40
2019-03-10T02:30:18.561Z,77.40
2019-03-10T02:32:47.648Z,77.50
2019-03-10T02:35:16.796Z,77.50
2019-03-10T02:37:45.763Z,77.50
2019-03-10T02:40:14.779Z,77.60
2019-03-10T02:42:43.741Z,77.60
2019-03-10T02:45:12.808Z,77.60
2019-03-10T02:47:41.910Z,77.60
2019-03-10T02:50:10.965Z,77.70
2019-03-10T02:52:40.043Z,77.70
2019-03-10T02:55:09.159Z,78.20
2019-03-10T02:57:38.223Z,77.70
2019-03-10T03:00:08.682Z,77.90
2019-03-10T03:02:37.781Z,77.90
2019-03-10T03:05:07.381Z,78.00
2019-03-10T03:07:36.519Z,78.10
2019-03-10T03:10:05.799Z,78.10
2019-03-10T03:12:35.565Z,78.20
2019-03-10T03:15:04.928Z,78.30
2019-03-10T03:17:33.994Z,78.20
2019-03-10T03:20:15.696Z,78.20
2019-03-10T03:23:20.849Z,78.30
2019-03-10T03:25:59.807Z,78.20
2019-03-10T03:28:48.988Z,78.30
2019-03-10T03:31:17.989Z,78.30
2019-03-10T03:33:47.404Z,78.40
2019-03-10T03:36:23.652Z,78.50
2019-03-10T03:38:56.789Z,78.60
2019-03-10T03:41:27.154Z,78.60
2019-03-10T03:43:56.128Z,78.80
2019-03-10T03:46:25.123Z,78.90
2019-03-10T03:48:54.175Z,79.00
2019-03-10T03:51:23.450Z,79.10
2019-03-10T03:53:52.509Z,79.20
2019-03-10T03:56:21.553Z,79.30
2019-03-10T03:58:50.575Z,79.50
2019-03-10T04:01:32.088Z,79.60
2019-03-10T04:04:01.090Z,79.70
2019-03-10T04:06:30.132Z,79.80
2019-03-10T04:08:59.205Z,80.00
2019-03-10T04:11:28.347Z,80.10
2019-03-10T04:13:57.484Z,80.20
2019-03-10T04:16:26.573Z,80.40
2019-03-10T04:18:55.621Z,80.40
2019-03-10T04:21:24.623Z,80.50
2019-03-10T04:23:53.778Z,80.70
2019-03-10T04:26:22.946Z,80.90
2019-03-10T04:28:51.958Z,81.00
2019-03-10T04:31:20.974Z,81.30
2019-03-10T04:33:50.055Z,81.40
2019-03-10T04:36:19.134Z,82.30
2019-03-10T04:38:48.174Z,81.80
2019-03-10T04:41:17.235Z,82.00
2019-03-10T04:43:46.306Z,83.10
2019-03-10T04:46:15.364Z,82.50
2019-03-10T04:48:44.437Z,83.00
2019-03-10T04:51:13.434Z,83.20
2019-03-10T04:53:42.417Z,83.60
2019-03-10T04:56:21.781Z,83.90
2019-03-10T04:58:52.230Z,84.10
2019-03-10T05:01:22.073Z,84.30
2019-03-10T05:03:51.235Z,84.60
2019-03-10T05:06:20.294Z,84.70
2019-03-10T05:08:49.382Z,84.80
2019-03-10T05:11:18.410Z,85.00
2019-03-10T05:13:47.421Z,85.20
2019-03-10T05:16:16.439Z,85.30
2019-03-10T05:18:45.607Z,85.40
2019-03-10T05:21:14.686Z,85.50
2019-03-10T05:23:44.668Z,85.70
2019-03-10T05:26:14.990Z,85.90
2019-03-10T05:28:45.507Z,85.90
2019-03-10T05:31:14.589Z,86.10
2019-03-10T05:33:43.678Z,86.20
2019-03-10T05:36:15.608Z,86.50
2019-03-10T05:38:44.621Z,86.60
2019-03-10T05:41:13.622Z,86.70
2019-03-10T05:43:42.663Z,86.90
2019-03-10T05:46:11.789Z,87.00
2019-03-10T05:48:40.890Z,87.20
2019-03-10T05:51:09.958Z,87.40
2019-03-10T05:53:38.983Z,87.50
2019-03-10T05:56:08.035Z,87.70
2019-03-10T05:58:56.280Z,87.80
2019-03-10T06:01:25.407Z,88.00
2019-03-10T06:03:54.463Z,88.00
2019-03-10T06:06:23.511Z,88.10
2019-03-10T06:08:54.105Z,88.10
2019-03-10T06:11:23.122Z,88.20
2019-03-10T06:13:52.155Z,88.20
2019-03-10T06:16:21.217Z,88.20
2019-03-10T06:18:50.250Z,88.20
2019-03-10T06:21:19.274Z,88.30
2019-03-10T06:23:48.310Z,88.30
2019-03-10T06:26:17.335Z,88.50
2019-03-10T06:28:46.406Z,88.50
2019-03-10T06:31:15.612Z,88.60
2019-03-10T06:33:44.637Z,88.60
2019-03-10T06:36:13.710Z,88.60
2019-03-10T06:38:42.777Z,88.60
2019-03-10T06:41:11.875Z,88.60
2019-03-10T06:43:40.931Z,88.60
2019-03-10T06:46:10.059Z,88.60
2019-03-10T06:48:39.175Z,88.70
2019-03-10T06:51:08.210Z,88.60
2019-03-10T06:53:37.289Z,88.70
2019-03-10T06:56:06.409Z,88.70
2019-03-10T06:58:35.488Z,88.80
2019-03-10T07:01:04.525Z,88.80
2019-03-10T07:03:33.606Z,88.90
2019-03-10T07:06:02.668Z,88.80
2019-03-10T07:08:32.655Z,88.90
2019-03-10T07:11:02.105Z,88.90
2019-03-10T07:13:31.133Z,89.00
2019-03-10T07:16:00.127Z,89.10
2019-03-10T07:18:29.184Z,89.00
2019-03-10T07:20:58.283Z,89.00
2019-03-10T07:23:27.410Z,89.20
2019-03-10T07:26:05.931Z,89.30
2019-03-10T07:28:55.273Z,89.40
2019-03-10T07:31:28.311Z,89.50
2019-03-10T07:34:16.398Z,89.50
2019-03-10T07:37:03.018Z,89.50
2019-03-10T07:39:45.481Z,89.60
2019-03-10T07:42:29.885Z,89.70
2019-03-10T07:45:07.927Z,89.70
2019-03-10T07:47:48.410Z,89.70
2019-03-10T07:50:33.288Z,89.70
2019-03-10T07:53:25.722Z,89.80
2019-03-10T07:56:12.443Z,89.80
2019-03-10T07:58:56.242Z,89.80
2019-03-10T08:02:02.593Z,89.80
2019-03-10T08:05:05.648Z,89.80
2019-03-10T08:07:51.562Z,89.80
2019-03-10T08:10:51.777Z,89.90
2019-03-10T08:13:51.706Z,90.00
2019-03-10T08:16:46.385Z,90.00
2019-03-10T08:19:27.001Z,89.90
2019-03-10T08:22:17.935Z,90.00
2019-03-10T08:25:03.470Z,90.00
2019-03-10T08:27:40.336Z,90.00
2019-03-10T08:30:24.737Z,90.00
2019-03-10T08:33:08.507Z,90.10
2019-03-10T08:35:50.699Z,90.10
2019-03-10T08:38:28.543Z,90.10
2019-03-10T08:41:25.657Z,90.10
2019-03-10T08:44:13.359Z,90.10
2019-03-10T08:46:57.795Z,90.10
2019-03-10T08:49:57.843Z,90.10
2019-03-10T08:52:42.675Z,90.10
2019-03-10T08:55:29.589Z,90.10
2019-03-10T08:58:12.939Z,90.10
2019-03-10T09:00:59.753Z,90.10
2019-03-10T09:03:55.024Z,90.20
2019-03-10T09:06:49.192Z,90.20
2019-03-10T09:09:34.828Z,90.20
2019-03-10T09:12:25.696Z,90.20
2019-03-10T09:15:13.780Z,90.20
2019-03-10T09:18:01.898Z,90.30
2019-03-10T09:20:48.754Z,90.30
2019-03-10T09:23:39.924Z,90.30
2019-03-10T09:26:33.959Z,90.30
2019-03-10T09:29:20.642Z,90.30
2019-03-10T09:32:11.510Z,90.40
2019-03-10T09:34:58.774Z,90.40
2019-03-10T09:37:35.739Z,90.40
2019-03-10T09:40:12.464Z,90.50
2019-03-10T09:42:57.173Z,90.50
2019-03-10T09:45:35.620Z,90.60
2019-03-10T09:48:29.678Z,90.60
2019-03-10T09:51:15.110Z,90.70
2019-03-10T09:54:01.927Z,90.70
2019-03-10T09:56:40.526Z,90.80
2019-03-10T09:59:28.642Z,90.80
2019-03-10T10:02:06.332Z,90.90
2019-03-10T10:04:53.299Z,90.90
2019-03-10T10:07:39.934Z,90.90
2019-03-10T10:10:24.665Z,91.00
2019-03-10T10:13:17.761Z,91.10
2019-03-10T10:16:01.947Z,91.20
2019-03-10T10:18:46.559Z,91.30
2019-03-10T10:21:37.170Z,91.30
2019-03-10T10:24:18.771Z,91.30
2019-03-10T10:26:59.139Z,91.40
2019-03-10T10:29:43.231Z,91.40
2019-03-10T10:32:37.354Z,91.40
2019-03-10T10:35:25.572Z,91.40
2019-03-10T10:38:18.590Z,91.40
2019-03-10T10:41:01.530Z,91.40
2019-03-10T10:43:58.836Z,91.40
2019-03-10T10:46:59.030Z,91.80
2019-03-10T10:49:45.797Z,91.50
2019-03-10T10:52:36.880Z,91.50
2019-03-10T10:55:12.884Z,91.60
2019-03-10T10:57:48.142Z,91.60
2019-03-10T11:00:25.775Z,91.60
2019-03-10T11:03:08.255Z,91.70
2019-03-10T11:05:54.108Z,91.70
2019-03-10T11:08:41.514Z,91.70
2019-03-10T11:11:27.911Z,91.80
2019-03-10T11:14:21.843Z,91.80
2019-03-10T11:17:17.293Z,91.80
2019-03-10T11:20:08.287Z,91.80
2019-03-10T11:22:48.158Z,91.80
2019-03-10T11:25:45.051Z,91.80
2019-03-10T11:28:31.630Z,91.70
2019-03-10T11:31:08.806Z,91.70
2019-03-10T11:33:48.813Z,91.70
2019-03-10T11:36:42.563Z,91.70
2019-03-10T11:39:28.958Z,91.70
2019-03-10T11:42:05.670Z,91.70
2019-03-10T11:44:49.057Z,91.70
2019-03-10T11:47:38.417Z,91.80
2019-03-10T11:50:39.184Z,91.80
2019-03-10T11:53:33.863Z,92.00
2019-03-10T11:56:27.782Z,92.10
2019-03-10T11:59:24.747Z,92.20
2019-03-10T12:01:59.551Z,92.30
2019-03-10T12:04:56.474Z,92.40
2019-03-10T12:07:56.652Z,92.50
2019-03-10T12:10:25.746Z,92.60
2019-03-10T12:12:54.748Z,92.70
2019-03-10T12:15:23.914Z,92.80
2019-03-10T12:17:52.957Z,92.80
2019-03-10T12:20:22.017Z,92.90
2019-03-10T12:22:51.102Z,93.00
2019-03-10T12:25:20.189Z,93.10
2019-03-10T12:27:49.163Z,93.10
2019-03-10T12:30:18.221Z,93.10
2019-03-10T12:32:47.401Z,93.10
2019-03-10T12:35:16.456Z,93.10
2019-03-10T12:37:45.536Z,93.00
2019-03-10T12:40:14.637Z,93.00
2019-03-10T12:42:43.665Z,92.90
2019-03-10T12:45:12.769Z,92.80
2019-03-10T12:47:41.881Z,92.70
2019-03-10T12:50:10.998Z,92.60
2019-03-10T12:52:40.059Z,92.50
2019-03-10T12:55:09.138Z,92.40
2019-03-10T12:57:38.444Z,92.30
2019-03-10T13:00:08.247Z,92.20
2019-03-10T13:02:37.422Z,92.10
2019-03-10T13:05:07.876Z,92.00
2019-03-10T13:07:37.057Z,91.90
2019-03-10T13:10:06.145Z,91.80
2019-03-10T13:12:35.282Z,91.80
2019-03-10T13:15:04.378Z,91.70
2019-03-10T13:17:52.601Z,91.60
2019-03-10T13:20:28.319Z,91.60
2019-03-10T13:22:52.343Z,91.60
2019-03-10T13:25:21.362Z,91.50
2019-03-10T13:27:51.591Z,91.50
2019-03-10T13:30:20.665Z,91.40
2019-03-10T13:32:49.750Z,91.30
2019-03-10T13:35:18.814Z,91.20
2019-03-10T13:37:47.806Z,91.10
2019-03-10T13:40:16.906Z,90.90
2019-03-10T13:42:45.946Z,90.70
2019-03-10T13:45:15.018Z,90.50
2019-03-10T13:47:44.074Z,90.30
2019-03-10T13:50:13.114Z,90.10
2019-03-10T13:52:42.206Z,90.00
2019-03-10T13:55:11.248Z,89.60
2019-03-10T13:57:45.409Z,89.40
2019-03-10T14:00:15.192Z,88.80
2019-03-10T14:02:44.261Z,88.50
2019-03-10T14:05:13.350Z,88.20
2019-03-10T14:07:43.857Z,87.90
2019-03-10T14:10:12.959Z,87.60
2019-03-10T14:13:05.186Z,87.30
2019-03-10T14:15:34.333Z,86.90
2019-03-10T14:18:03.395Z,86.70
2019-03-10T14:20:32.459Z,86.50
2019-03-10T14:23:01.955Z,86.30
2019-03-10T14:25:31.014Z,86.10
2019-03-10T14:28:00.878Z,85.90
2019-03-10T14:30:29.932Z,85.80
2019-03-10T14:32:58.972Z,85.80
2019-03-10T14:35:48.178Z,85.60
2019-03-10T14:38:17.652Z,85.50
2019-03-10T14:40:48.153Z,85.40
2019-03-10T14:43:18.327Z,85.30
2019-03-10T14:45:47.380Z,85.20
2019-03-10T14:48:16.406Z,85.20
2019-03-10T14:50:46.113Z,85.10
2019-03-10T14:53:15.303Z,85.00
2019-03-10T14:55:44.430Z,85.00
2019-03-10T14:58:13.505Z,84.90
2019-03-10T15:00:42.658Z,85.00
2019-03-10T15:03:30.830Z,84.90
2019-03-10T15:05:59.846Z,84.90
2019-03-10T15:08:28.933Z,84.90
2019-03-10T15:10:58.032Z,84.90
2019-03-10T15:13:27.654Z,84.90
2019-03-10T15:15:56.811Z,84.90
2019-03-10T15:18:25.850Z,84.90
2019-03-10T15:20:55.001Z,84.90
2019-03-10T15:23:35.651Z,85.40
2019-03-10T15:26:05.204Z,84.90
2019-03-10T15:28:40.429Z,85.00
2019-03-10T15:31:09.570Z,85.00
2019-03-10T15:33:38.596Z,85.10
2019-03-10T15:36:07.631Z,85.10
2019-03-10T15:38:36.827Z,85.10
2019-03-10T15:41:05.945Z,85.20
2019-03-10T15:43:34.981Z,85.30
2019-03-10T15:46:04.081Z,85.30
2019-03-10T15:48:33.104Z,85.40
2019-03-10T15:51:02.109Z,86.20
2019-03-10T15:53:31.857Z,85.40
2019-03-10T15:56:00.832Z,85.50
2019-03-10T15:58:29.862Z,85.50
2019-03-10T16:00:58.982Z,85.50
2019-03-10T16:03:28.079Z,85.50
2019-03-10T16:05:57.539Z,85.50
2019-03-10T16:08:26.610Z,85.50
2019-03-10T16:10:55.734Z,85.50
2019-03-10T16:13:24.824Z,85.50
2019-03-10T16:15:53.923Z,85.60
2019-03-10T16:18:23.071Z,85.50
2019-03-10T16:20:52.333Z,85.40
2019-03-10T16:23:21.760Z,85.40
2019-03-10T16:25:51.150Z,85.40
2019-03-10T16:28:20.300Z,85.50
2019-03-10T16:30:49.541Z,85.40
2019-03-10T16:33:18.995Z,85.40
2019-03-10T16:35:48.304Z,85.40
2019-03-10T16:38:17.440Z,85.40
2019-03-10T16:40:46.609Z,85.50
2019-03-10T16:43:15.893Z,85.50
2019-03-10T16:45:45.609Z,85.50
2019-03-10T16:48:14.837Z,85.50
2019-03-10T16:50:43.861Z,85.60
2019-03-10T16:53:12.926Z,85.60
2019-03-10T16:55:42.060Z,85.60
2019-03-10T16:58:11.176Z,85.60
2019-03-10T17:00:40.323Z,85.60
2019-03-10T17:03:09.600Z,85.60
2019-03-10T17:05:38.721Z,85.60
2019-03-10T17:08:07.753Z,85.70
2019-03-10T17:10:36.847Z,85.60
2019-03-10T17:13:05.929Z,85.50
2019-03-10T17:15:35.119Z,85.30
2019-03-10T17:18:04.238Z,85.20
2019-03-10T17:20:33.264Z,85.10
2019-03-10T17:23:02.237Z,85.00
2019-03-10T17:25:31.335Z,85.00
2019-03-10T17:28:19.573Z,85.20
2019-03-10T17:30:48.597Z,85.10
2019-03-10T17:33:17.625Z,85.20
2019-03-10T17:35:46.697Z,85.30
2019-03-10T17:38:15.683Z,85.40
2019-03-10T17:40:44.809Z,85.40
2019-03-10T17:43:13.865Z,85.40
2019-03-10T17:45:42.989Z,85.50
2019-03-10T17:48:13.131Z,85.50
2019-03-10T17:50:42.349Z,85.50
2019-03-10T17:53:11.436Z,85.50
2019-03-10T17:55:40.474Z,85.60
2019-03-10T17:58:09.544Z,85.60
2019-03-10T18:00:39.186Z,85.60
2019-03-10T18:03:08.249Z,85.60
2019-03-10T18:05:37.334Z,85.60
2019-03-10T18:08:06.406Z,85.60
2019-03-10T18:10:35.427Z,85.70
2019-03-10T18:13:04.432Z,85.70
2019-03-10T18:15:45.863Z,85.80
2019-03-10T18:18:14.888Z,85.80
2019-03-10T18:20:43.905Z,85.80
2019-03-10T18:23:13.064Z,85.90
2019-03-10T18:25:42.135Z,85.90
2019-03-10T18:28:11.302Z,86.00
2019-03-10T18:30:40.320Z,86.10
2019-03-10T18:33:09.370Z,86.20
2019-03-10T18:35:38.498Z,86.30
2019-03-10T18:38:07.509Z,86.40
2019-03-10T18:40:36.669Z,86.80
2019-03-10T18:43:05.646Z,86.60
2019-03-10T18:45:34.746Z,86.50
2019-03-10T18:48:03.767Z,86.50
2019-03-10T18:50:32.900Z,86.50
2019-03-10T18:53:01.964Z,86.50
2019-03-10T18:55:30.982Z,86.20
2019-03-10T18:58:00.100Z,85.90
2019-03-10T19:00:29.191Z,85.60
2019-03-10T19:02:58.278Z,85.40
2019-03-10T19:05:46.637Z,85.30
2019-03-10T19:08:15.681Z,85.00
2019-03-10T19:10:44.765Z,85.00
2019-03-10T19:13:13.952Z,84.90
2019-03-10T19:15:43.089Z,84.80
2019-03-10T19:18:12.131Z,84.60
2019-03-10T19:20:41.305Z,84.60
2019-03-10T19:23:10.373Z,84.50
2019-03-10T19:25:58.737Z,84.50
2019-03-10T19:28:27.872Z,84.40
2019-03-10T19:30:56.950Z,84.30
2019-03-10T19:33:25.935Z,84.20
2019-03-10T19:35:54.958Z,84.10
2019-03-10T19:38:24.027Z,84.00
2019-03-10T19:40:53.088Z,84.00
2019-03-10T19:43:22.242Z,83.80
2019-03-10T19:45:51.388Z,83.70
2019-03-10T19:48:20.411Z,83.80
2019-03-10T19:50:49.458Z,83.70
2019-03-10T19:53:18.503Z,83.60
2019-03-10T19:55:47.640Z,83.60
2019-03-10T19:58:16.682Z,83.60
2019-03-10T20:00:45.796Z,84.40
2019-03-10T20:03:14.944Z,83.60
2019-03-10T20:05:43.997Z,83.60
2019-03-10T20:08:13.001Z,83.50
2019-03-10T20:10:42.036Z,83.60
2019-03-10T20:13:11.086Z,83.40
2019-03-10T20:15:40.320Z,83.30
2019-03-10T20:18:09.367Z,84.00
2019-03-10T20:20:38.525Z,83.00
2019-03-10T20:23:07.600Z,82.90
2019-03-10T20:25:36.706Z,82.80
2019-03-10T20:28:05.862Z,82.60
2019-03-10T20:30:34.902Z,82.30
2019-03-10T20:33:04.035Z,82.10
2019-03-10T20:35:33.188Z,81.90
2019-03-10T20:38:02.357Z,81.70
2019-03-10T20:40:31.401Z,81.40
2019-03-10T20:43:00.379Z,81.30
2019-03-10T20:45:29.494Z,81.10
2019-03-10T20:47:58.678Z,80.90
2019-03-10T20:50:46.890Z,80.70
2019-03-10T20:53:15.955Z,80.60
2019-03-10T20:55:45.068Z,80.50
2019-03-10T20:58:14.174Z,80.30
2019-03-10T21:00:44.544Z,80.10
2019-03-10T21:03:13.645Z,80.00
2019-03-10T21:05:42.718Z,79.80
2019-03-10T21:08:11.741Z,80.50
2019-03-10T21:10:40.747Z,79.50
2019-03-10T21:13:09.719Z,79.40
2019-03-10T21:15:38.766Z,79.40
2019-03-10T21:18:07.935Z,79.40
2019-03-10T21:20:37.056Z,79.40
2019-03-10T21:23:06.142Z,79.20
2019-03-10T21:25:35.233Z,79.20
2019-03-10T21:28:04.262Z,79.10
2019-03-10T21:30:33.312Z,79.00
2019-03-10T21:33:02.349Z,79.00
2019-03-10T21:35:33.366Z,79.00
2019-03-10T21:38:02.231Z,78.90
2019-03-10T21:40:31.377Z,78.90
2019-03-10T21:43:00.474Z,78.80
2019-03-10T21:45:29.529Z,78.90
2019-03-10T21:47:58.590Z,78.80
2019-03-10T21:50:27.657Z,78.80
2019-03-10T21:52:56.730Z,78.80
2019-03-10T21:55:25.823Z,78.80
2019-03-10T21:57:54.788Z,78.80
2019-03-10T22:00:23.883Z,78.80
2019-03-10T22:02:52.934Z,79.50
2019-03-10T22:05:22.011Z,78.70
2019-03-10T22:07:51.084Z,78.70
2019-03-10T22:10:26.849Z,78.80
2019-03-10T22:12:50.814Z,78.80
2019-03-10T22:15:19.856Z,78.80
2019-03-10T22:17:48.872Z,78.80
2019-03-10T22:20:17.903Z,78.90
2019-03-10T22:22:49.840Z,78.90
2019-03-10T22:25:17.938Z,78.80
2019-03-10T22:27:47.121Z,78.80
2019-03-10T22:30:16.573Z,78.80
2019-03-10T22:32:45.663Z,78.80
2019-03-10T22:35:14.730Z,78.80
2019-03-10T22:37:43.867Z,78.80
2019-03-10T22:40:12.953Z,78.80
2019-03-10T22:42:41.974Z,78.80
2019-03-10T22:45:11.621Z,78.90
2019-03-10T22:47:40.664Z,78.80
2019-03-10T22:50:10.526Z,78.90
2019-03-10T22:52:58.770Z,79.00
2019-03-10T22:55:27.825Z,79.10
2019-03-10T22:57:56.879Z,79.10
2019-03-10T23:00:30.144Z,79.20
2019-03-10T23:03:00.319Z,79.20
2019-03-10T23:05:29.343Z,79.30
2019-03-10T23:07:58.357Z,79.30
2019-03-10T23:10:27.370Z,79.30
2019-03-10T23:12:56.390Z,79.20
2019-03-10T23:15:25.513Z,79.20
2019-03-10T23:17:54.519Z,79.30
2019-03-10T23:20:23.561Z,79.10
2019-03-10T23:22:52.704Z,79.10
2019-03-10T23:25:21.874Z,79.20
2019-03-10T23:27:50.993Z,79.20
2019-03-10T23:30:20.073Z,79.20
2019-03-10T23:32:49.096Z,79.20
2019-03-10T23:35:18.111Z,79.20
2019-03-10T23:37:47.174Z,79.20
2019-03-10T23:40:16.263Z,79.20
2019-03-10T23:42:45.437Z,79.20
2019-03-10T23:45:14.512Z,79.20
2019-03-10T23:47:43.593Z,79.20
2019-03-10T23:50:12.837Z,79.20
2019-03-10T23:52:41.882Z,79.20
2019-03-10T23:55:11.067Z,79.20
2019-03-10T23:57:40.166Z,79.20
